ARG1897 SAWH-SAWC
Flight info
| Callsign | ARG1897 |
|---|---|
| Flight time | 0h 58m |
| Altitude | 36000 |
| Route | USU2A GRA UW42 GAL UW52 DEVIS DEVIS1Q |
| Aircraft | B738/M-SDE2E3FGHIRWXY/LB1 |
Departure
| Time | 2026-05-04 19:58 |
|---|---|
| Airport | Ushuaia - Malvinas Argentinas International Airport (SAWH) |
Arrival
| Time | 2026-05-04 20:57 |
|---|---|
| Airport | El Calafate - Commander Armando Tola International Airport (SAWC) |
| Time | Latitude | Longitude | Altitude | Speed | Heading |
|---|---|---|---|---|---|
| 2026-05-04 19:33 | -54.84024 | -68.31179 | 110 ft | 0 kts | 348° |
| 2026-05-04 19:51 | -54.84030 | -68.31177 | 110 ft | 2 kts | 348° |
| 2026-05-04 19:51 | -54.84050 | -68.31171 | 110 ft | 3 kts | 352° |
| 2026-05-04 19:52 | -54.84068 | -68.31166 | 110 ft | 2 kts | 351° |
| 2026-05-04 19:52 | -54.84084 | -68.31159 | 110 ft | 3 kts | 322° |
| 2026-05-04 19:52 | -54.84095 | -68.31134 | 110 ft | 3 kts | 281° |
| 2026-05-04 19:52 | -54.84096 | -68.31108 | 110 ft | 1 kts | 265° |
| 2026-05-04 19:53 | -54.84096 | -68.31105 | 110 ft | 0 kts | 265° |
| 2026-05-04 19:55 | -54.84097 | -68.31140 | 110 ft | 5 kts | 267° |
| 2026-05-04 19:55 | -54.84100 | -68.31204 | 110 ft | 7 kts | 267° |
| 2026-05-04 19:55 | -54.84112 | -68.31318 | 110 ft | 11 kts | 225° |
| 2026-05-04 19:56 | -54.84186 | -68.31324 | 110 ft | 11 kts | 174° |
| 2026-05-04 19:56 | -54.84280 | -68.31314 | 110 ft | 19 kts | 176° |
| 2026-05-04 19:56 | -54.84381 | -68.31308 | 110 ft | 11 kts | 200° |
| 2026-05-04 19:56 | -54.84405 | -68.31418 | 110 ft | 10 kts | 266° |
| 2026-05-04 19:57 | -54.84418 | -68.31534 | 110 ft | 10 kts | 279° |
| 2026-05-04 19:57 | -54.84375 | -68.31720 | 110 ft | 15 kts | 281° |
| 2026-05-04 19:57 | -54.84390 | -68.31742 | 110 ft | 3 kts | 172° |
| 2026-05-04 19:57 | -54.84414 | -68.31720 | 110 ft | 6 kts | 111° |
| 2026-05-04 19:58 | -54.84405 | -68.31446 | 110 ft | 55 kts | 86° |
| 2026-05-04 19:58 | -54.84364 | -68.30346 | 117 ft | 124 kts | 86° |
| 2026-05-04 19:58 | -54.84290 | -68.28712 | 705 ft | 138 kts | 85° |
| 2026-05-04 19:58 | -54.84224 | -68.27035 | 1439 ft | 147 kts | 89° |
| 2026-05-04 19:59 | -54.84202 | -68.25133 | 1958 ft | 171 kts | 94° |
| 2026-05-04 19:59 | -54.84518 | -68.23070 | 2650 ft | 178 kts | 109° |
| 2026-05-04 19:59 | -54.84860 | -68.21018 | 3552 ft | 181 kts | 109° |
| 2026-05-04 19:59 | -54.85278 | -68.18795 | 4078 ft | 205 kts | 109° |
| 2026-05-04 20:00 | -54.85745 | -68.16350 | 4707 ft | 222 kts | 109° |
| 2026-05-04 20:00 | -54.86238 | -68.13691 | 5339 ft | 241 kts | 108° |
| 2026-05-04 20:00 | -54.86766 | -68.10816 | 5983 ft | 258 kts | 108° |
| 2026-05-04 20:00 | -54.87314 | -68.07783 | 6778 ft | 268 kts | 108° |
| 2026-05-04 20:01 | -54.87874 | -68.04672 | 7713 ft | 273 kts | 109° |
| 2026-05-04 20:01 | -54.88444 | -68.01501 | 8639 ft | 277 kts | 109° |
| 2026-05-04 20:01 | -54.89021 | -67.98279 | 9564 ft | 281 kts | 109° |
| 2026-05-04 20:01 | -54.89492 | -67.94945 | 10363 ft | 292 kts | 98° |
| 2026-05-04 20:02 | -54.89328 | -67.91295 | 10829 ft | 315 kts | 76° |
| 2026-05-04 20:02 | -54.88349 | -67.87756 | 11282 ft | 337 kts | 55° |
| 2026-05-04 20:02 | -54.86637 | -67.84891 | 11896 ft | 350 kts | 34° |
| 2026-05-04 20:02 | -54.84411 | -67.83141 | 12701 ft | 354 kts | 15° |
| 2026-05-04 20:03 | -54.81985 | -67.82449 | 13482 ft | 359 kts | 2° |
| 2026-05-04 20:03 | -54.79666 | -67.82662 | 14186 ft | 362 kts | 349° |
| 2026-05-04 20:03 | -54.77296 | -67.83521 | 14929 ft | 366 kts | 346° |
| 2026-05-04 20:03 | -54.74776 | -67.84372 | 15684 ft | 371 kts | 347° |
| 2026-05-04 20:04 | -54.72224 | -67.85228 | 16423 ft | 375 kts | 347° |
| 2026-05-04 20:04 | -54.69653 | -67.86092 | 17145 ft | 380 kts | 347° |
| 2026-05-04 20:04 | -54.67035 | -67.86973 | 17851 ft | 384 kts | 347° |
| 2026-05-04 20:04 | -54.64400 | -67.87862 | 18536 ft | 389 kts | 347° |
| 2026-05-04 20:05 | -54.61733 | -67.88762 | 19209 ft | 393 kts | 346° |
| 2026-05-04 20:05 | -54.59030 | -67.89675 | 19871 ft | 397 kts | 346° |
| 2026-05-04 20:05 | -54.56307 | -67.90593 | 20513 ft | 401 kts | 346° |
| 2026-05-04 20:05 | -54.53556 | -67.91521 | 21137 ft | 405 kts | 346° |
| 2026-05-04 20:06 | -54.50814 | -67.92444 | 21737 ft | 408 kts | 346° |
| 2026-05-04 20:06 | -54.48006 | -67.93389 | 22331 ft | 412 kts | 346° |
| 2026-05-04 20:06 | -54.45187 | -67.94339 | 22918 ft | 415 kts | 346° |
| 2026-05-04 20:06 | -54.42338 | -67.95316 | 23495 ft | 418 kts | 346° |
| 2026-05-04 20:07 | -54.39475 | -67.96292 | 24052 ft | 421 kts | 346° |
| 2026-05-04 20:07 | -54.36592 | -67.97269 | 24592 ft | 424 kts | 346° |
| 2026-05-04 20:07 | -54.33688 | -67.98249 | 25113 ft | 427 kts | 346° |
| 2026-05-04 20:07 | -54.30768 | -67.99232 | 25623 ft | 429 kts | 346° |
| 2026-05-04 20:08 | -54.27830 | -68.00219 | 26123 ft | 431 kts | 346° |
| 2026-05-04 20:08 | -54.24879 | -68.01208 | 26624 ft | 433 kts | 346° |
| 2026-05-04 20:08 | -54.21912 | -68.02200 | 27078 ft | 436 kts | 346° |
| 2026-05-04 20:08 | -54.18922 | -68.03198 | 27526 ft | 438 kts | 346° |
| 2026-05-04 20:09 | -54.15922 | -68.04198 | 27958 ft | 441 kts | 346° |
| 2026-05-04 20:09 | -54.12907 | -68.05201 | 28375 ft | 443 kts | 346° |
| 2026-05-04 20:09 | -54.09874 | -68.06209 | 28778 ft | 445 kts | 346° |
| 2026-05-04 20:09 | -54.06818 | -68.07222 | 29145 ft | 448 kts | 346° |
| 2026-05-04 20:10 | -54.03751 | -68.08238 | 29495 ft | 451 kts | 346° |
| 2026-05-04 20:10 | -54.00659 | -68.09261 | 29842 ft | 453 kts | 346° |
| 2026-05-04 20:10 | -53.97562 | -68.10283 | 30273 ft | 453 kts | 346° |
| 2026-05-04 20:10 | -53.94474 | -68.11301 | 30749 ft | 452 kts | 346° |
| 2026-05-04 20:11 | -53.91741 | -68.12201 | 31131 ft | 452 kts | 346° |
| 2026-05-04 20:11 | -53.88657 | -68.13215 | 31563 ft | 451 kts | 346° |
| 2026-05-04 20:11 | -53.85575 | -68.14226 | 31989 ft | 451 kts | 346° |
| 2026-05-04 20:11 | -53.82504 | -68.15233 | 32406 ft | 450 kts | 346° |
| 2026-05-04 20:12 | -53.79427 | -68.16240 | 32818 ft | 450 kts | 346° |
| 2026-05-04 20:12 | -53.76396 | -68.17230 | 33214 ft | 449 kts | 345° |
| 2026-05-04 20:12 | -53.73328 | -68.18231 | 33610 ft | 448 kts | 345° |
| 2026-05-04 20:12 | -53.70263 | -68.19230 | 34002 ft | 448 kts | 345° |
| 2026-05-04 20:13 | -53.67207 | -68.20224 | 34385 ft | 447 kts | 345° |
| 2026-05-04 20:13 | -53.64148 | -68.21218 | 34750 ft | 447 kts | 345° |
| 2026-05-04 20:13 | -53.61100 | -68.22207 | 35119 ft | 446 kts | 345° |
| 2026-05-04 20:13 | -53.58049 | -68.23195 | 35365 ft | 449 kts | 345° |
| 2026-05-04 20:14 | -53.54977 | -68.24189 | 35399 ft | 451 kts | 345° |
| 2026-05-04 20:14 | -53.48788 | -68.26186 | 35408 ft | 451 kts | 345° |
| 2026-05-04 20:15 | -53.42569 | -68.28187 | 35410 ft | 460 kts | 345° |
| 2026-05-04 20:15 | -53.36206 | -68.30228 | 35410 ft | 470 kts | 345° |
| 2026-05-04 20:16 | -53.29812 | -68.32272 | 35409 ft | 470 kts | 345° |
| 2026-05-04 20:16 | -53.23398 | -68.34318 | 35409 ft | 469 kts | 345° |
| 2026-05-04 20:17 | -53.16980 | -68.36358 | 35409 ft | 469 kts | 345° |
| 2026-05-04 20:17 | -53.10558 | -68.38402 | 35410 ft | 469 kts | 345° |
| 2026-05-04 20:18 | -53.04138 | -68.40440 | 35406 ft | 469 kts | 345° |
| 2026-05-04 20:18 | -52.97747 | -68.42449 | 35405 ft | 469 kts | 345° |
| 2026-05-04 20:19 | -52.91307 | -68.44464 | 35404 ft | 469 kts | 345° |
| 2026-05-04 20:19 | -52.84889 | -68.46468 | 35403 ft | 469 kts | 345° |
| 2026-05-04 20:20 | -52.78622 | -68.49215 | 35403 ft | 464 kts | 336° |
| 2026-05-04 20:20 | -52.72693 | -68.53376 | 35403 ft | 462 kts | 332° |
| 2026-05-04 20:21 | -52.66826 | -68.57701 | 35403 ft | 462 kts | 332° |
| 2026-05-04 20:21 | -52.58007 | -68.64122 | 35403 ft | 462 kts | 332° |
| 2026-05-04 20:22 | -52.52130 | -68.68374 | 35403 ft | 462 kts | 332° |
| 2026-05-04 20:22 | -52.46285 | -68.72625 | 35403 ft | 462 kts | 332° |
| 2026-05-04 20:23 | -52.40413 | -68.76902 | 35403 ft | 462 kts | 332° |
| 2026-05-04 20:23 | -52.34522 | -68.81154 | 35403 ft | 462 kts | 332° |
| 2026-05-04 20:24 | -52.28636 | -68.85383 | 35403 ft | 462 kts | 332° |
| 2026-05-04 20:24 | -52.22746 | -68.89599 | 35403 ft | 462 kts | 332° |
| 2026-05-04 20:25 | -52.16859 | -68.93800 | 35403 ft | 462 kts | 332° |
| 2026-05-04 20:25 | -52.10965 | -68.97994 | 35403 ft | 462 kts | 332° |
| 2026-05-04 20:26 | -52.05071 | -69.02175 | 35403 ft | 462 kts | 332° |
| 2026-05-04 20:26 | -51.99197 | -69.06330 | 35403 ft | 459 kts | 332° |
| 2026-05-04 20:27 | -51.93336 | -69.10465 | 35403 ft | 460 kts | 332° |
| 2026-05-04 20:27 | -51.87476 | -69.14621 | 35404 ft | 459 kts | 332° |
| 2026-05-04 20:28 | -51.81974 | -69.18488 | 35403 ft | 458 kts | 332° |
| 2026-05-04 20:28 | -51.76166 | -69.22540 | 35403 ft | 458 kts | 332° |
| 2026-05-04 20:29 | -51.70310 | -69.26610 | 35415 ft | 456 kts | 332° |
| 2026-05-04 20:29 | -51.64580 | -69.30676 | 35421 ft | 443 kts | 328° |
| 2026-05-04 20:30 | -51.59784 | -69.36540 | 35432 ft | 430 kts | 310° |
| 2026-05-04 20:30 | -51.57817 | -69.40167 | 35156 ft | 430 kts | 306° |
| 2026-05-04 20:30 | -51.55982 | -69.43900 | 34786 ft | 422 kts | 304° |
| 2026-05-04 20:31 | -51.54215 | -69.47652 | 34268 ft | 418 kts | 304° |
| 2026-05-04 20:31 | -51.52464 | -69.51371 | 33762 ft | 415 kts | 304° |
| 2026-05-04 20:31 | -51.50733 | -69.55039 | 33268 ft | 411 kts | 304° |
| 2026-05-04 20:31 | -51.49587 | -69.57464 | 32944 ft | 409 kts | 304° |
| 2026-05-04 20:32 | -51.47306 | -69.62284 | 32304 ft | 404 kts | 304° |
| 2026-05-04 20:32 | -51.46160 | -69.64700 | 31985 ft | 401 kts | 304° |
| 2026-05-04 20:32 | -51.44495 | -69.68210 | 31524 ft | 398 kts | 304° |
| 2026-05-04 20:32 | -51.42824 | -69.71726 | 31066 ft | 395 kts | 304° |
| 2026-05-04 20:33 | -51.41168 | -69.75208 | 30613 ft | 391 kts | 304° |
| 2026-05-04 20:33 | -51.39541 | -69.78666 | 30171 ft | 388 kts | 303° |
| 2026-05-04 20:33 | -51.37937 | -69.82122 | 29731 ft | 385 kts | 304° |
| 2026-05-04 20:33 | -51.36335 | -69.85541 | 29301 ft | 382 kts | 304° |
| 2026-05-04 20:34 | -51.34743 | -69.88915 | 28877 ft | 379 kts | 304° |
| 2026-05-04 20:34 | -51.33154 | -69.92267 | 28448 ft | 376 kts | 304° |
| 2026-05-04 20:34 | -51.31575 | -69.95590 | 28016 ft | 374 kts | 304° |
| 2026-05-04 20:34 | -51.30001 | -69.98893 | 27583 ft | 372 kts | 304° |
| 2026-05-04 20:35 | -51.28437 | -70.02168 | 27154 ft | 370 kts | 304° |
| 2026-05-04 20:35 | -51.26892 | -70.05397 | 26728 ft | 369 kts | 304° |
| 2026-05-04 20:35 | -51.25320 | -70.08684 | 26295 ft | 368 kts | 304° |
| 2026-05-04 20:35 | -51.23786 | -70.11954 | 25866 ft | 366 kts | 304° |
| 2026-05-04 20:36 | -51.22274 | -70.15137 | 25449 ft | 366 kts | 305° |
| 2026-05-04 20:36 | -51.20733 | -70.18353 | 25024 ft | 365 kts | 305° |
| 2026-05-04 20:36 | -51.19182 | -70.21570 | 24599 ft | 364 kts | 306° |
| 2026-05-04 20:36 | -51.17641 | -70.24753 | 24177 ft | 363 kts | 306° |
| 2026-05-04 20:37 | -51.16097 | -70.27937 | 23755 ft | 362 kts | 307° |
| 2026-05-04 20:37 | -51.14556 | -70.31107 | 23334 ft | 361 kts | 307° |
| 2026-05-04 20:37 | -51.13016 | -70.34273 | 22913 ft | 360 kts | 307° |
| 2026-05-04 20:37 | -51.11482 | -70.37423 | 22495 ft | 359 kts | 307° |
| 2026-05-04 20:38 | -51.09956 | -70.40555 | 22077 ft | 358 kts | 307° |
| 2026-05-04 20:38 | -51.08436 | -70.43673 | 21661 ft | 356 kts | 307° |
| 2026-05-04 20:38 | -51.06924 | -70.46775 | 21246 ft | 355 kts | 307° |
| 2026-05-04 20:38 | -51.05414 | -70.49869 | 20832 ft | 353 kts | 307° |
| 2026-05-04 20:39 | -51.03834 | -70.52864 | 20420 ft | 352 kts | 310° |
| 2026-05-04 20:39 | -51.02182 | -70.55727 | 20012 ft | 351 kts | 311° |
| 2026-05-04 20:39 | -51.00519 | -70.58550 | 19605 ft | 349 kts | 311° |
| 2026-05-04 20:39 | -50.98874 | -70.61375 | 19201 ft | 347 kts | 311° |
| 2026-05-04 20:40 | -50.97250 | -70.64185 | 18800 ft | 345 kts | 310° |
| 2026-05-04 20:40 | -50.95636 | -70.66984 | 18402 ft | 342 kts | 310° |
| 2026-05-04 20:40 | -50.94042 | -70.69750 | 18010 ft | 340 kts | 310° |
| 2026-05-04 20:40 | -50.92446 | -70.72521 | 17616 ft | 337 kts | 310° |
| 2026-05-04 20:41 | -50.90877 | -70.75243 | 17230 ft | 334 kts | 310° |
| 2026-05-04 20:41 | -50.89315 | -70.77959 | 16842 ft | 332 kts | 310° |
| 2026-05-04 20:41 | -50.87755 | -70.80651 | 16455 ft | 329 kts | 310° |
| 2026-05-04 20:41 | -50.86209 | -70.83312 | 16070 ft | 327 kts | 310° |
| 2026-05-04 20:42 | -50.84675 | -70.85950 | 15687 ft | 325 kts | 311° |
| 2026-05-04 20:42 | -50.83151 | -70.88568 | 15307 ft | 323 kts | 311° |
| 2026-05-04 20:42 | -50.81633 | -70.91173 | 14928 ft | 320 kts | 311° |
| 2026-05-04 20:42 | -50.80148 | -70.93721 | 14557 ft | 318 kts | 311° |
| 2026-05-04 20:43 | -50.78632 | -70.96318 | 14178 ft | 316 kts | 311° |
| 2026-05-04 20:43 | -50.77166 | -70.98828 | 13811 ft | 314 kts | 311° |
| 2026-05-04 20:43 | -50.75694 | -71.01368 | 13440 ft | 312 kts | 310° |
| 2026-05-04 20:43 | -50.74247 | -71.03927 | 13070 ft | 310 kts | 310° |
| 2026-05-04 20:44 | -50.72804 | -71.06443 | 12703 ft | 309 kts | 310° |
| 2026-05-04 20:44 | -50.71360 | -71.08934 | 12337 ft | 307 kts | 311° |
| 2026-05-04 20:44 | -50.69918 | -71.11404 | 11973 ft | 305 kts | 311° |
| 2026-05-04 20:44 | -50.68476 | -71.13864 | 11609 ft | 304 kts | 311° |
| 2026-05-04 20:45 | -50.67046 | -71.16298 | 11247 ft | 302 kts | 311° |
| 2026-05-04 20:45 | -50.65621 | -71.18717 | 10886 ft | 301 kts | 311° |
| 2026-05-04 20:45 | -50.64199 | -71.21130 | 10526 ft | 299 kts | 311° |
| 2026-05-04 20:45 | -50.62786 | -71.23523 | 10167 ft | 297 kts | 311° |
| 2026-05-04 20:46 | -50.61383 | -71.25899 | 9812 ft | 296 kts | 311° |
| 2026-05-04 20:46 | -50.59984 | -71.28266 | 9512 ft | 292 kts | 311° |
| 2026-05-04 20:46 | -50.58625 | -71.30565 | 9430 ft | 281 kts | 311° |
| 2026-05-04 20:46 | -50.57304 | -71.32799 | 9160 ft | 278 kts | 311° |
| 2026-05-04 20:47 | -50.55992 | -71.35015 | 8838 ft | 276 kts | 311° |
| 2026-05-04 20:47 | -50.54686 | -71.37223 | 8515 ft | 275 kts | 311° |
| 2026-05-04 20:47 | -50.53391 | -71.39426 | 8190 ft | 273 kts | 310° |
| 2026-05-04 20:47 | -50.52119 | -71.41590 | 7869 ft | 272 kts | 310° |
| 2026-05-04 20:48 | -50.50820 | -71.43787 | 7539 ft | 271 kts | 310° |
| 2026-05-04 20:48 | -50.49538 | -71.45949 | 7211 ft | 269 kts | 310° |
| 2026-05-04 20:48 | -50.48262 | -71.48093 | 6882 ft | 268 kts | 310° |
| 2026-05-04 20:48 | -50.47008 | -71.50198 | 6558 ft | 267 kts | 309° |
| 2026-05-04 20:49 | -50.45725 | -71.52350 | 6223 ft | 266 kts | 309° |
| 2026-05-04 20:49 | -50.44485 | -71.54428 | 5981 ft | 261 kts | 309° |
| 2026-05-04 20:49 | -50.43269 | -71.56466 | 5908 ft | 249 kts | 308° |
| 2026-05-04 20:49 | -50.42099 | -71.58426 | 5917 ft | 243 kts | 308° |
| 2026-05-04 20:50 | -50.40955 | -71.60346 | 5944 ft | 239 kts | 308° |
| 2026-05-04 20:50 | -50.39833 | -71.62260 | 5791 ft | 238 kts | 308° |
| 2026-05-04 20:50 | -50.38838 | -71.63911 | 5590 ft | 235 kts | 308° |
| 2026-05-04 20:50 | -50.37721 | -71.65770 | 5368 ft | 233 kts | 307° |
| 2026-05-04 20:51 | -50.36619 | -71.67606 | 5152 ft | 232 kts | 307° |
| 2026-05-04 20:51 | -50.35485 | -71.69421 | 4936 ft | 234 kts | 312° |
| 2026-05-04 20:51 | -50.34158 | -71.70938 | 4668 ft | 242 kts | 322° |
| 2026-05-04 20:51 | -50.32620 | -71.72113 | 4324 ft | 248 kts | 333° |
| 2026-05-04 20:52 | -50.30966 | -71.72957 | 4081 ft | 249 kts | 334° |
| 2026-05-04 20:52 | -50.29393 | -71.74020 | 3877 ft | 246 kts | 329° |
| 2026-05-04 20:52 | -50.27857 | -71.75198 | 3692 ft | 244 kts | 325° |
| 2026-05-04 20:52 | -50.26633 | -71.76877 | 3508 ft | 227 kts | 297° |
| 2026-05-04 20:53 | -50.26258 | -71.79116 | 3368 ft | 204 kts | 266° |
| 2026-05-04 20:53 | -50.26355 | -71.81219 | 3219 ft | 186 kts | 259° |
| 2026-05-04 20:53 | -50.26532 | -71.83125 | 3042 ft | 170 kts | 255° |
| 2026-05-04 20:53 | -50.26737 | -71.84845 | 2898 ft | 157 kts | 255° |
| 2026-05-04 20:54 | -50.26894 | -71.86557 | 2760 ft | 164 kts | 258° |
| 2026-05-04 20:54 | -50.27010 | -71.88331 | 2561 ft | 163 kts | 260° |
| 2026-05-04 20:54 | -50.27118 | -71.90095 | 2318 ft | 157 kts | 261° |
| 2026-05-04 20:54 | -50.27215 | -71.91721 | 2102 ft | 148 kts | 261° |
| 2026-05-04 20:55 | -50.27307 | -71.93281 | 1926 ft | 138 kts | 260° |
| 2026-05-04 20:55 | -50.27393 | -71.94712 | 1742 ft | 128 kts | 261° |
| 2026-05-04 20:55 | -50.27474 | -71.96086 | 1572 ft | 127 kts | 262° |
| 2026-05-04 20:55 | -50.27559 | -71.97514 | 1426 ft | 135 kts | 262° |
| 2026-05-04 20:56 | -50.27647 | -71.98996 | 1230 ft | 137 kts | 264° |
| 2026-05-04 20:56 | -50.27736 | -72.00499 | 1037 ft | 142 kts | 264° |
| 2026-05-04 20:56 | -50.27827 | -72.02035 | 871 ft | 143 kts | 264° |
| 2026-05-04 20:56 | -50.27919 | -72.03567 | 714 ft | 141 kts | 265° |
| 2026-05-04 20:57 | -50.28006 | -72.04976 | 678 ft | 105 kts | 264° |
| 2026-05-04 20:57 | -50.28054 | -72.05739 | 677 ft | 38 kts | 264° |
| 2026-05-04 20:57 | -50.28071 | -72.06017 | 677 ft | 25 kts | 264° |
| 2026-05-04 20:57 | -50.28101 | -72.06201 | 677 ft | 16 kts | 232° |
| 2026-05-04 20:58 | -50.28170 | -72.06338 | 677 ft | 15 kts | 232° |
| 2026-05-04 20:58 | -50.28253 | -72.06411 | 677 ft | 15 kts | 172° |
| 2026-05-04 20:58 | -50.28311 | -72.06307 | 677 ft | 14 kts | 88° |
| 2026-05-04 20:58 | -50.28304 | -72.06162 | 677 ft | 13 kts | 85° |
| 2026-05-04 20:59 | -50.28297 | -72.06025 | 677 ft | 12 kts | 85° |
| 2026-05-04 20:59 | -50.28290 | -72.05893 | 677 ft | 12 kts | 85° |
| 2026-05-04 20:59 | -50.28283 | -72.05765 | 677 ft | 11 kts | 85° |
| 2026-05-04 20:59 | -50.28277 | -72.05644 | 677 ft | 11 kts | 85° |
| 2026-05-04 21:00 | -50.28270 | -72.05526 | 677 ft | 11 kts | 85° |
| 2026-05-04 21:00 | -50.28271 | -72.05464 | 677 ft | 2 kts | 145° |
| 2026-05-04 21:00 | -50.28304 | -72.05461 | 677 ft | 8 kts | 178° |
| 2026-05-04 21:00 | -50.28338 | -72.05459 | 677 ft | 3 kts | 177° |
| 2026-05-04 21:01 | -50.28343 | -72.05459 | 677 ft | 0 kts | 176° |